sensor_id;sensor_type;location;lat;lon;timestamp;P1;durP1;ratioP1;P2;durP2;ratioP2
7659;SDS011;3872;47.902;8.162;2022-07-25T00:01:03;13.20;;;9.07;;
7659;SDS011;3872;47.902;8.162;2022-07-25T00:03:30;15.10;;;9.00;;
7659;SDS011;3872;47.902;8.162;2022-07-25T00:05:57;14.90;;;7.27;;
7659;SDS011;3872;47.902;8.162;2022-07-25T00:08:23;13.17;;;8.90;;
7659;SDS011;3872;47.902;8.162;2022-07-25T00:10:50;13.20;;;8.57;;
7659;SDS011;3872;47.902;8.162;2022-07-25T00:13:17;13.13;;;9.03;;
7659;SDS011;3872;47.902;8.162;2022-07-25T00:15:43;21.93;;;10.20;;
7659;SDS011;3872;47.902;8.162;2022-07-25T00:18:11;13.57;;;8.27;;
7659;SDS011;3872;47.902;8.162;2022-07-25T00:20:37;17.13;;;9.07;;
7659;SDS011;3872;47.902;8.162;2022-07-25T00:23:04;14.30;;;9.10;;
7659;SDS011;3872;47.902;8.162;2022-07-25T00:25:30;16.93;;;8.90;;
7659;SDS011;3872;47.902;8.162;2022-07-25T00:27:57;12.60;;;8.33;;
7659;SDS011;3872;47.902;8.162;2022-07-25T00:30:24;13.97;;;9.43;;
7659;SDS011;3872;47.902;8.162;2022-07-25T00:32:51;13.90;;;9.20;;
7659;SDS011;3872;47.902;8.162;2022-07-25T00:35:19;16.20;;;10.13;;
7659;SDS011;3872;47.902;8.162;2022-07-25T00:37:45;14.63;;;9.47;;
7659;SDS011;3872;47.902;8.162;2022-07-25T00:40:12;17.13;;;9.10;;
7659;SDS011;3872;47.902;8.162;2022-07-25T00:42:38;14.90;;;9.40;;
7659;SDS011;3872;47.902;8.162;2022-07-25T00:45:05;14.23;;;8.80;;
7659;SDS011;3872;47.902;8.162;2022-07-25T00:47:32;13.10;;;8.83;;
7659;SDS011;3872;47.902;8.162;2022-07-25T00:49:59;13.47;;;8.60;;
7659;SDS011;3872;47.902;8.162;2022-07-25T00:52:27;16.60;;;8.70;;
7659;SDS011;3872;47.902;8.162;2022-07-25T00:54:53;12.90;;;8.57;;
7659;SDS011;3872;47.902;8.162;2022-07-25T00:57:20;15.33;;;9.00;;
7659;SDS011;3872;47.902;8.162;2022-07-25T00:59:47;14.13;;;9.80;;
7659;SDS011;3872;47.902;8.162;2022-07-25T01:02:14;15.17;;;9.10;;
7659;SDS011;3872;47.902;8.162;2022-07-25T01:04:40;14.60;;;8.20;;
7659;SDS011;3872;47.902;8.162;2022-07-25T01:07:07;13.30;;;8.97;;
7659;SDS011;3872;47.902;8.162;2022-07-25T01:09:35;13.60;;;8.60;;
7659;SDS011;3872;47.902;8.162;2022-07-25T01:12:02;14.07;;;9.00;;
7659;SDS011;3872;47.902;8.162;2022-07-25T01:14:36;15.20;;;9.10;;
7659;SDS011;3872;47.902;8.162;2022-07-25T01:17:03;13.77;;;8.43;;
7659;SDS011;3872;47.902;8.162;2022-07-25T01:19:29;20.60;;;9.13;;
7659;SDS011;3872;47.902;8.162;2022-07-25T01:21:57;14.90;;;8.70;;
7659;SDS011;3872;47.902;8.162;2022-07-25T01:24:24;14.20;;;10.10;;
7659;SDS011;3872;47.902;8.162;2022-07-25T01:26:50;14.43;;;9.20;;
7659;SDS011;3872;47.902;8.162;2022-07-25T01:29:17;14.10;;;8.90;;
7659;SDS011;3872;47.902;8.162;2022-07-25T01:31:44;14.27;;;9.03;;
7659;SDS011;3872;47.902;8.162;2022-07-25T01:34:10;15.17;;;10.13;;
7659;SDS011;3872;47.902;8.162;2022-07-25T01:36:37;17.60;;;8.00;;
7659;SDS011;3872;47.902;8.162;2022-07-25T01:39:04;13.30;;;8.97;;
7659;SDS011;3872;47.902;8.162;2022-07-25T01:41:31;13.73;;;8.50;;
7659;SDS011;3872;47.902;8.162;2022-07-25T01:43:57;14.43;;;8.50;;
7659;SDS011;3872;47.902;8.162;2022-07-25T01:46:24;13.07;;;8.30;;
7659;SDS011;3872;47.902;8.162;2022-07-25T01:48:51;15.60;;;8.50;;
7659;SDS011;3872;47.902;8.162;2022-07-25T01:51:17;16.70;;;9.80;;
7659;SDS011;3872;47.902;8.162;2022-07-25T01:53:44;16.20;;;9.93;;
7659;SDS011;3872;47.902;8.162;2022-07-25T01:56:12;17.17;;;8.47;;
7659;SDS011;3872;47.902;8.162;2022-07-25T01:58:38;13.50;;;7.60;;
7659;SDS011;3872;47.902;8.162;2022-07-25T02:01:05;15.83;;;9.13;;
7659;SDS011;3872;47.902;8.162;2022-07-25T02:03:31;11.87;;;7.43;;
7659;SDS011;3872;47.902;8.162;2022-07-25T02:05:59;14.67;;;8.57;;
7659;SDS011;3872;47.902;8.162;2022-07-25T02:08:27;14.60;;;9.13;;
7659;SDS011;3872;47.902;8.162;2022-07-25T02:10:54;16.90;;;9.20;;
7659;SDS011;3872;47.902;8.162;2022-07-25T02:13:23;16.13;;;9.13;;
7659;SDS011;3872;47.902;8.162;2022-07-25T02:15:50;16.43;;;9.20;;
7659;SDS011;3872;47.902;8.162;2022-07-25T02:18:17;14.60;;;9.17;;
7659;SDS011;3872;47.902;8.162;2022-07-25T02:20:44;14.93;;;9.00;;
7659;SDS011;3872;47.902;8.162;2022-07-25T02:23:10;12.57;;;7.93;;
7659;SDS011;3872;47.902;8.162;2022-07-25T02:25:37;16.43;;;8.53;;
7659;SDS011;3872;47.902;8.162;2022-07-25T02:28:03;17.20;;;9.33;;
7659;SDS011;3872;47.902;8.162;2022-07-25T02:30:31;15.00;;;8.93;;
7659;SDS011;3872;47.902;8.162;2022-07-25T02:32:58;15.50;;;9.37;;
7659;SDS011;3872;47.902;8.162;2022-07-25T02:35:25;14.50;;;9.03;;
7659;SDS011;3872;47.902;8.162;2022-07-25T02:37:51;14.47;;;8.23;;
7659;SDS011;3872;47.902;8.162;2022-07-25T02:40:19;13.33;;;8.73;;
7659;SDS011;3872;47.902;8.162;2022-07-25T02:42:46;13.97;;;9.03;;
7659;SDS011;3872;47.902;8.162;2022-07-25T02:45:12;15.37;;;8.80;;
7659;SDS011;3872;47.902;8.162;2022-07-25T02:47:40;16.83;;;9.03;;
7659;SDS011;3872;47.902;8.162;2022-07-25T02:50:07;13.57;;;9.10;;
7659;SDS011;3872;47.902;8.162;2022-07-25T02:52:34;18.67;;;9.47;;
7659;SDS011;3872;47.902;8.162;2022-07-25T02:55:00;17.43;;;8.73;;
7659;SDS011;3872;47.902;8.162;2022-07-25T02:57:27;14.17;;;9.10;;
7659;SDS011;3872;47.902;8.162;2022-07-25T02:59:53;15.17;;;9.60;;
7659;SDS011;3872;47.902;8.162;2022-07-25T03:02:20;14.93;;;9.10;;
7659;SDS011;3872;47.902;8.162;2022-07-25T03:04:48;13.40;;;8.83;;
7659;SDS011;3872;47.902;8.162;2022-07-25T03:07:14;12.53;;;7.90;;
7659;SDS011;3872;47.902;8.162;2022-07-25T03:09:41;13.37;;;8.83;;
7659;SDS011;3872;47.902;8.162;2022-07-25T03:12:07;13.10;;;8.07;;
7659;SDS011;3872;47.902;8.162;2022-07-25T03:14:34;14.90;;;8.90;;
7659;SDS011;3872;47.902;8.162;2022-07-25T03:17:01;16.00;;;7.67;;
7659;SDS011;3872;47.902;8.162;2022-07-25T03:19:27;17.77;;;8.90;;
7659;SDS011;3872;47.902;8.162;2022-07-25T03:21:55;17.27;;;8.47;;
7659;SDS011;3872;47.902;8.162;2022-07-25T03:24:22;11.93;;;7.70;;
7659;SDS011;3872;47.902;8.162;2022-07-25T03:26:48;15.47;;;8.10;;
7659;SDS011;3872;47.902;8.162;2022-07-25T03:29:15;13.50;;;8.07;;
7659;SDS011;3872;47.902;8.162;2022-07-25T03:31:41;13.40;;;8.50;;
7659;SDS011;3872;47.902;8.162;2022-07-25T03:34:08;11.47;;;7.70;;
7659;SDS011;3872;47.902;8.162;2022-07-25T03:36:34;14.90;;;8.70;;
7659;SDS011;3872;47.902;8.162;2022-07-25T03:39:02;14.57;;;8.73;;
7659;SDS011;3872;47.902;8.162;2022-07-25T03:41:29;15.40;;;8.87;;
7659;SDS011;3872;47.902;8.162;2022-07-25T03:43:56;14.03;;;8.93;;
7659;SDS011;3872;47.902;8.162;2022-07-25T03:46:22;16.93;;;9.53;;
7659;SDS011;3872;47.902;8.162;2022-07-25T03:48:48;14.60;;;8.93;;
7659;SDS011;3872;47.902;8.162;2022-07-25T03:51:15;13.40;;;8.93;;
7659;SDS011;3872;47.902;8.162;2022-07-25T03:53:42;13.07;;;7.93;;
7659;SDS011;3872;47.902;8.162;2022-07-25T03:56:27;16.67;;;8.90;;
7659;SDS011;3872;47.902;8.162;2022-07-25T03:58:54;15.63;;;8.90;;
7659;SDS011;3872;47.902;8.162;2022-07-25T04:01:20;19.77;;;9.30;;
7659;SDS011;3872;47.902;8.162;2022-07-25T04:03:47;14.97;;;8.40;;
7659;SDS011;3872;47.902;8.162;2022-07-25T04:06:13;12.80;;;8.07;;
7659;SDS011;3872;47.902;8.162;2022-07-25T04:08:40;14.20;;;8.67;;
7659;SDS011;3872;47.902;8.162;2022-07-25T04:11:06;15.20;;;8.90;;
7659;SDS011;3872;47.902;8.162;2022-07-25T04:13:34;14.17;;;9.17;;
7659;SDS011;3872;47.902;8.162;2022-07-25T04:16:01;17.43;;;9.23;;
7659;SDS011;3872;47.902;8.162;2022-07-25T04:18:28;17.40;;;9.17;;
7659;SDS011;3872;47.902;8.162;2022-07-25T04:20:54;14.63;;;9.50;;
7659;SDS011;3872;47.902;8.162;2022-07-25T04:23:21;17.70;;;8.60;;
7659;SDS011;3872;47.902;8.162;2022-07-25T04:25:47;12.87;;;8.47;;
7659;SDS011;3872;47.902;8.162;2022-07-25T04:28:14;15.07;;;8.53;;
7659;SDS011;3872;47.902;8.162;2022-07-25T04:30:42;15.37;;;9.40;;
7659;SDS011;3872;47.902;8.162;2022-07-25T04:33:09;15.53;;;8.53;;
7659;SDS011;3872;47.902;8.162;2022-07-25T04:35:36;25.87;;;9.27;;
7659;SDS011;3872;47.902;8.162;2022-07-25T04:38:03;13.90;;;8.60;;
7659;SDS011;3872;47.902;8.162;2022-07-25T04:40:29;14.93;;;8.23;;
7659;SDS011;3872;47.902;8.162;2022-07-25T04:42:56;16.80;;;9.43;;
7659;SDS011;3872;47.902;8.162;2022-07-25T04:45:23;15.23;;;9.73;;
7659;SDS011;3872;47.902;8.162;2022-07-25T04:47:51;16.20;;;9.10;;
7659;SDS011;3872;47.902;8.162;2022-07-25T04:50:17;18.23;;;9.87;;
7659;SDS011;3872;47.902;8.162;2022-07-25T04:52:44;15.43;;;8.90;;
7659;SDS011;3872;47.902;8.162;2022-07-25T04:55:10;13.27;;;8.20;;
7659;SDS011;3872;47.902;8.162;2022-07-25T04:57:37;13.77;;;8.40;;
7659;SDS011;3872;47.902;8.162;2022-07-25T05:00:05;15.00;;;8.53;;
7659;SDS011;3872;47.902;8.162;2022-07-25T05:02:33;15.57;;;9.40;;
7659;SDS011;3872;47.902;8.162;2022-07-25T05:05:02;14.00;;;9.10;;
7659;SDS011;3872;47.902;8.162;2022-07-25T05:07:29;15.80;;;10.00;;
7659;SDS011;3872;47.902;8.162;2022-07-25T05:09:55;14.27;;;9.53;;
7659;SDS011;3872;47.902;8.162;2022-07-25T05:12:23;14.90;;;9.23;;
7659;SDS011;3872;47.902;8.162;2022-07-25T05:14:49;15.00;;;8.93;;
7659;SDS011;3872;47.902;8.162;2022-07-25T05:17:16;15.50;;;9.77;;
7659;SDS011;3872;47.902;8.162;2022-07-25T05:19:42;13.70;;;8.53;;
7659;SDS011;3872;47.902;8.162;2022-07-25T05:22:10;13.60;;;9.00;;
7659;SDS011;3872;47.902;8.162;2022-07-25T05:24:36;19.60;;;10.60;;
7659;SDS011;3872;47.902;8.162;2022-07-25T05:27:03;16.27;;;11.40;;
7659;SDS011;3872;47.902;8.162;2022-07-25T05:29:30;15.60;;;9.93;;
7659;SDS011;3872;47.902;8.162;2022-07-25T05:31:57;17.50;;;10.50;;
7659;SDS011;3872;47.902;8.162;2022-07-25T05:34:24;18.50;;;11.00;;
7659;SDS011;3872;47.902;8.162;2022-07-25T05:36:50;17.63;;;10.70;;
7659;SDS011;3872;47.902;8.162;2022-07-25T05:39:18;17.20;;;10.57;;
7659;SDS011;3872;47.902;8.162;2022-07-25T05:41:45;15.10;;;10.40;;
7659;SDS011;3872;47.902;8.162;2022-07-25T05:44:11;17.77;;;10.47;;
7659;SDS011;3872;47.902;8.162;2022-07-25T05:46:38;17.67;;;11.37;;
7659;SDS011;3872;47.902;8.162;2022-07-25T05:49:04;16.37;;;9.67;;
7659;SDS011;3872;47.902;8.162;2022-07-25T05:51:31;16.47;;;10.60;;
7659;SDS011;3872;47.902;8.162;2022-07-25T05:53:57;16.70;;;10.63;;
7659;SDS011;3872;47.902;8.162;2022-07-25T05:56:25;18.50;;;11.50;;
7659;SDS011;3872;47.902;8.162;2022-07-25T05:58:54;19.57;;;11.50;;
7659;SDS011;3872;47.902;8.162;2022-07-25T06:01:20;17.20;;;10.67;;
7659;SDS011;3872;47.902;8.162;2022-07-25T06:03:47;16.77;;;11.37;;
7659;SDS011;3872;47.902;8.162;2022-07-25T06:06:13;15.43;;;10.43;;
7659;SDS011;3872;47.902;8.162;2022-07-25T06:08:40;17.37;;;11.20;;
7659;SDS011;3872;47.902;8.162;2022-07-25T06:11:06;18.33;;;10.87;;
7659;SDS011;3872;47.902;8.162;2022-07-25T06:13:34;16.70;;;11.23;;
7659;SDS011;3872;47.902;8.162;2022-07-25T06:16:01;17.83;;;11.80;;
7659;SDS011;3872;47.902;8.162;2022-07-25T06:18:27;19.20;;;10.70;;
7659;SDS011;3872;47.902;8.162;2022-07-25T06:20:54;16.87;;;10.50;;
7659;SDS011;3872;47.902;8.162;2022-07-25T06:23:20;21.40;;;11.23;;
7659;SDS011;3872;47.902;8.162;2022-07-25T06:25:47;16.03;;;11.10;;
7659;SDS011;3872;47.902;8.162;2022-07-25T06:28:14;18.70;;;11.60;;
7659;SDS011;3872;47.902;8.162;2022-07-25T06:30:42;14.80;;;10.20;;
7659;SDS011;3872;47.902;8.162;2022-07-25T06:33:09;19.67;;;10.23;;
7659;SDS011;3872;47.902;8.162;2022-07-25T06:35:35;17.77;;;11.33;;
7659;SDS011;3872;47.902;8.162;2022-07-25T06:38:02;17.37;;;10.47;;
7659;SDS011;3872;47.902;8.162;2022-07-25T06:40:29;17.50;;;10.40;;
7659;SDS011;3872;47.902;8.162;2022-07-25T06:42:55;16.27;;;10.47;;
7659;SDS011;3872;47.902;8.162;2022-07-25T06:45:22;17.60;;;9.80;;
7659;SDS011;3872;47.902;8.162;2022-07-25T06:47:50;16.10;;;10.40;;
7659;SDS011;3872;47.902;8.162;2022-07-25T06:50:17;14.20;;;10.13;;
7659;SDS011;3872;47.902;8.162;2022-07-25T06:52:45;16.20;;;9.97;;
7659;SDS011;3872;47.902;8.162;2022-07-25T06:55:12;18.17;;;10.23;;
7659;SDS011;3872;47.902;8.162;2022-07-25T06:57:40;21.03;;;10.77;;
7659;SDS011;3872;47.902;8.162;2022-07-25T07:00:07;13.50;;;9.07;;
7659;SDS011;3872;47.902;8.162;2022-07-25T07:02:45;15.57;;;9.60;;
7659;SDS011;3872;47.902;8.162;2022-07-25T07:05:14;13.63;;;8.40;;
7659;SDS011;3872;47.902;8.162;2022-07-25T07:07:41;15.53;;;9.77;;
7659;SDS011;3872;47.902;8.162;2022-07-25T07:10:08;16.10;;;8.93;;
7659;SDS011;3872;47.902;8.162;2022-07-25T07:12:34;12.63;;;8.53;;
7659;SDS011;3872;47.902;8.162;2022-07-25T07:15:01;12.60;;;7.93;;
7659;SDS011;3872;47.902;8.162;2022-07-25T07:17:28;11.30;;;7.33;;
7659;SDS011;3872;47.902;8.162;2022-07-25T07:19:54;14.77;;;7.40;;
7659;SDS011;3872;47.902;8.162;2022-07-25T07:22:22;11.40;;;7.10;;
7659;SDS011;3872;47.902;8.162;2022-07-25T07:24:49;12.07;;;7.30;;
7659;SDS011;3872;47.902;8.162;2022-07-25T07:27:16;16.20;;;7.20;;
7659;SDS011;3872;47.902;8.162;2022-07-25T07:29:42;12.00;;;6.83;;
7659;SDS011;3872;47.902;8.162;2022-07-25T07:32:09;12.20;;;6.90;;
7659;SDS011;3872;47.902;8.162;2022-07-25T07:34:35;13.00;;;6.30;;
7659;SDS011;3872;47.902;8.162;2022-07-25T07:37:02;11.67;;;6.43;;
7659;SDS011;3872;47.902;8.162;2022-07-25T07:39:30;10.07;;;5.90;;
7659;SDS011;3872;47.902;8.162;2022-07-25T07:41:56;9.60;;;5.80;;
7659;SDS011;3872;47.902;8.162;2022-07-25T07:44:23;14.70;;;7.10;;
7659;SDS011;3872;47.902;8.162;2022-07-25T07:46:50;12.60;;;6.70;;
7659;SDS011;3872;47.902;8.162;2022-07-25T07:49:16;10.20;;;5.53;;
7659;SDS011;3872;47.902;8.162;2022-07-25T07:51:43;10.20;;;6.27;;
7659;SDS011;3872;47.902;8.162;2022-07-25T07:54:09;9.07;;;5.77;;
7659;SDS011;3872;47.902;8.162;2022-07-25T07:57:09;11.13;;;5.23;;
7659;SDS011;3872;47.902;8.162;2022-07-25T07:59:36;8.67;;;5.60;;
7659;SDS011;3872;47.902;8.162;2022-07-25T08:02:03;9.30;;;5.53;;
7659;SDS011;3872;47.902;8.162;2022-07-25T08:04:29;9.13;;;6.47;;
7659;SDS011;3872;47.902;8.162;2022-07-25T08:06:55;9.67;;;6.03;;
7659;SDS011;3872;47.902;8.162;2022-07-25T08:09:22;10.17;;;6.13;;
7659;SDS011;3872;47.902;8.162;2022-07-25T08:11:49;11.80;;;5.60;;
7659;SDS011;3872;47.902;8.162;2022-07-25T08:14:17;8.60;;;5.50;;
7659;SDS011;3872;47.902;8.162;2022-07-25T08:16:44;11.07;;;5.77;;
7659;SDS011;3872;47.902;8.162;2022-07-25T08:19:11;9.53;;;6.00;;
7659;SDS011;3872;47.902;8.162;2022-07-25T08:21:37;9.27;;;6.07;;
7659;SDS011;3872;47.902;8.162;2022-07-25T08:24:04;11.00;;;5.73;;
7659;SDS011;3872;47.902;8.162;2022-07-25T08:26:31;9.63;;;5.03;;
7659;SDS011;3872;47.902;8.162;2022-07-25T08:28:58;11.57;;;5.83;;
7659;SDS011;3872;47.902;8.162;2022-07-25T08:31:26;10.43;;;5.93;;
7659;SDS011;3872;47.902;8.162;2022-07-25T08:33:53;9.97;;;6.00;;
7659;SDS011;3872;47.902;8.162;2022-07-25T08:36:19;11.53;;;6.97;;
7659;SDS011;3872;47.902;8.162;2022-07-25T08:38:46;8.60;;;5.37;;
7659;SDS011;3872;47.902;8.162;2022-07-25T08:41:12;8.40;;;4.80;;
7659;SDS011;3872;47.902;8.162;2022-07-25T08:43:39;11.83;;;6.03;;
7659;SDS011;3872;47.902;8.162;2022-07-25T08:46:07;9.20;;;5.40;;
7659;SDS011;3872;47.902;8.162;2022-07-25T08:48:34;10.87;;;5.00;;
7659;SDS011;3872;47.902;8.162;2022-07-25T08:51:02;10.57;;;5.00;;
7659;SDS011;3872;47.902;8.162;2022-07-25T08:53:29;10.43;;;5.33;;
7659;SDS011;3872;47.902;8.162;2022-07-25T08:55:56;8.00;;;5.50;;
7659;SDS011;3872;47.902;8.162;2022-07-25T08:58:23;9.83;;;6.60;;
7659;SDS011;3872;47.902;8.162;2022-07-25T09:00:50;9.07;;;5.97;;
7659;SDS011;3872;47.902;8.162;2022-07-25T09:03:16;12.23;;;5.83;;
7659;SDS011;3872;47.902;8.162;2022-07-25T09:05:44;8.37;;;5.57;;
7659;SDS011;3872;47.902;8.162;2022-07-25T09:08:11;13.80;;;6.20;;
7659;SDS011;3872;47.902;8.162;2022-07-25T09:10:39;12.07;;;5.10;;
7659;SDS011;3872;47.902;8.162;2022-07-25T09:13:10;9.60;;;5.53;;
7659;SDS011;3872;47.902;8.162;2022-07-25T09:15:39;8.60;;;5.33;;
7659;SDS011;3872;47.902;8.162;2022-07-25T09:18:11;9.37;;;5.73;;
7659;SDS011;3872;47.902;8.162;2022-07-25T09:20:40;13.03;;;6.27;;
7659;SDS011;3872;47.902;8.162;2022-07-25T09:23:09;11.73;;;6.27;;
7659;SDS011;3872;47.902;8.162;2022-07-25T09:25:38;12.20;;;5.53;;
7659;SDS011;3872;47.902;8.162;2022-07-25T09:28:12;22.13;;;5.17;;
7659;SDS011;3872;47.902;8.162;2022-07-25T09:30:40;9.23;;;5.70;;
7659;SDS011;3872;47.902;8.162;2022-07-25T09:33:18;10.23;;;5.60;;
7659;SDS011;3872;47.902;8.162;2022-07-25T09:35:45;10.90;;;5.43;;
7659;SDS011;3872;47.902;8.162;2022-07-25T09:38:16;8.33;;;5.47;;
7659;SDS011;3872;47.902;8.162;2022-07-25T09:40:52;8.93;;;5.17;;
7659;SDS011;3872;47.902;8.162;2022-07-25T09:43:19;8.43;;;5.03;;
7659;SDS011;3872;47.902;8.162;2022-07-25T09:45:47;9.37;;;5.40;;
7659;SDS011;3872;47.902;8.162;2022-07-25T09:48:14;8.60;;;4.90;;
7659;SDS011;3872;47.902;8.162;2022-07-25T09:50:43;8.63;;;5.53;;
7659;SDS011;3872;47.902;8.162;2022-07-25T09:53:10;10.20;;;5.23;;
7659;SDS011;3872;47.902;8.162;2022-07-25T09:55:39;13.23;;;5.70;;
7659;SDS011;3872;47.902;8.162;2022-07-25T09:58:05;9.07;;;5.30;;
7659;SDS011;3872;47.902;8.162;2022-07-25T10:00:32;7.67;;;4.83;;
7659;SDS011;3872;47.902;8.162;2022-07-25T10:03:16;8.30;;;5.40;;
7659;SDS011;3872;47.902;8.162;2022-07-25T10:05:58;10.40;;;4.90;;
7659;SDS011;3872;47.902;8.162;2022-07-25T10:08:34;9.30;;;5.30;;
7659;SDS011;3872;47.902;8.162;2022-07-25T10:11:02;8.40;;;4.83;;
7659;SDS011;3872;47.902;8.162;2022-07-25T10:13:31;8.83;;;5.40;;
7659;SDS011;3872;47.902;8.162;2022-07-25T10:15:59;9.77;;;5.50;;
7659;SDS011;3872;47.902;8.162;2022-07-25T10:18:27;8.00;;;4.97;;
7659;SDS011;3872;47.902;8.162;2022-07-25T10:21:07;11.17;;;5.10;;
7659;SDS011;3872;47.902;8.162;2022-07-25T10:23:34;7.83;;;4.83;;
7659;SDS011;3872;47.902;8.162;2022-07-25T10:26:05;10.50;;;5.57;;
7659;SDS011;3872;47.902;8.162;2022-07-25T10:28:38;9.47;;;5.47;;
7659;SDS011;3872;47.902;8.162;2022-07-25T10:31:13;9.27;;;5.30;;
7659;SDS011;3872;47.902;8.162;2022-07-25T10:33:47;8.87;;;5.23;;
7659;SDS011;3872;47.902;8.162;2022-07-25T10:36:17;8.17;;;4.90;;
7659;SDS011;3872;47.902;8.162;2022-07-25T10:38:45;7.80;;;4.80;;
7659;SDS011;3872;47.902;8.162;2022-07-25T10:41:14;10.87;;;5.33;;
7659;SDS011;3872;47.902;8.162;2022-07-25T10:43:43;9.50;;;4.70;;
7659;SDS011;3872;47.902;8.162;2022-07-25T10:46:11;7.77;;;4.40;;
7659;SDS011;3872;47.902;8.162;2022-07-25T10:48:39;8.90;;;5.33;;
7659;SDS011;3872;47.902;8.162;2022-07-25T10:51:07;10.40;;;4.20;;
7659;SDS011;3872;47.902;8.162;2022-07-25T10:53:35;8.07;;;4.37;;
7659;SDS011;3872;47.902;8.162;2022-07-25T10:56:07;8.97;;;4.70;;
7659;SDS011;3872;47.902;8.162;2022-07-25T10:58:43;9.60;;;4.40;;
7659;SDS011;3872;47.902;8.162;2022-07-25T11:01:19;11.90;;;5.03;;
7659;SDS011;3872;47.902;8.162;2022-07-25T11:03:47;7.23;;;4.30;;
7659;SDS011;3872;47.902;8.162;2022-07-25T11:06:14;8.07;;;4.53;;
7659;SDS011;3872;47.902;8.162;2022-07-25T11:08:42;6.63;;;4.20;;
7659;SDS011;3872;47.902;8.162;2022-07-25T11:11:10;7.60;;;4.43;;
7659;SDS011;3872;47.902;8.162;2022-07-25T11:13:37;9.40;;;4.83;;
7659;SDS011;3872;47.902;8.162;2022-07-25T11:16:06;11.03;;;4.90;;
7659;SDS011;3872;47.902;8.162;2022-07-25T11:18:35;8.73;;;4.40;;
7659;SDS011;3872;47.902;8.162;2022-07-25T11:21:03;7.93;;;4.90;;
7659;SDS011;3872;47.902;8.162;2022-07-25T11:23:33;9.20;;;4.83;;
7659;SDS011;3872;47.902;8.162;2022-07-25T11:26:07;7.63;;;4.30;;
7659;SDS011;3872;47.902;8.162;2022-07-25T11:28:42;8.70;;;4.40;;
7659;SDS011;3872;47.902;8.162;2022-07-25T11:31:12;9.23;;;5.00;;
7659;SDS011;3872;47.902;8.162;2022-07-25T11:33:40;7.77;;;5.03;;
7659;SDS011;3872;47.902;8.162;2022-07-25T11:36:08;7.53;;;4.63;;
7659;SDS011;3872;47.902;8.162;2022-07-25T11:38:36;10.23;;;5.07;;
7659;SDS011;3872;47.902;8.162;2022-07-25T11:41:04;7.30;;;4.67;;
7659;SDS011;3872;47.902;8.162;2022-07-25T11:43:31;8.87;;;4.87;;
7659;SDS011;3872;47.902;8.162;2022-07-25T11:45:58;10.80;;;6.60;;
7659;SDS011;3872;47.902;8.162;2022-07-25T11:48:35;7.10;;;4.40;;
7659;SDS011;3872;47.902;8.162;2022-07-25T11:51:07;8.17;;;4.80;;
7659;SDS011;3872;47.902;8.162;2022-07-25T11:53:37;7.60;;;4.70;;
7659;SDS011;3872;47.902;8.162;2022-07-25T11:56:09;7.80;;;5.00;;
7659;SDS011;3872;47.902;8.162;2022-07-25T11:58:37;8.00;;;4.80;;
7659;SDS011;3872;47.902;8.162;2022-07-25T12:01:09;8.60;;;5.30;;
7659;SDS011;3872;47.902;8.162;2022-07-25T12:03:38;8.27;;;5.53;;
7659;SDS011;3872;47.902;8.162;2022-07-25T12:06:06;7.17;;;4.70;;
7659;SDS011;3872;47.902;8.162;2022-07-25T12:08:36;14.17;;;6.23;;
7659;SDS011;3872;47.902;8.162;2022-07-25T12:11:14;17.97;;;6.43;;
7659;SDS011;3872;47.902;8.162;2022-07-25T12:13:42;10.63;;;6.67;;
7659;SDS011;3872;47.902;8.162;2022-07-25T12:16:08;10.00;;;6.43;;
7659;SDS011;3872;47.902;8.162;2022-07-25T12:18:36;10.70;;;6.57;;
7659;SDS011;3872;47.902;8.162;2022-07-25T12:21:04;15.17;;;7.03;;
7659;SDS011;3872;47.902;8.162;2022-07-25T12:23:32;10.17;;;6.60;;
7659;SDS011;3872;47.902;8.162;2022-07-25T12:25:59;19.40;;;6.70;;
7659;SDS011;3872;47.902;8.162;2022-07-25T12:28:25;11.57;;;6.70;;
7659;SDS011;3872;47.902;8.162;2022-07-25T12:30:53;10.20;;;6.53;;
7659;SDS011;3872;47.902;8.162;2022-07-25T12:33:19;13.70;;;6.60;;
7659;SDS011;3872;47.902;8.162;2022-07-25T12:35:46;14.07;;;7.03;;
7659;SDS011;3872;47.902;8.162;2022-07-25T12:38:14;14.63;;;6.80;;
7659;SDS011;3872;47.902;8.162;2022-07-25T12:40:40;8.67;;;6.50;;
7659;SDS011;3872;47.902;8.162;2022-07-25T12:43:07;11.90;;;6.53;;
7659;SDS011;3872;47.902;8.162;2022-07-25T12:45:34;10.20;;;6.80;;
7659;SDS011;3872;47.902;8.162;2022-07-25T12:48:00;11.17;;;6.67;;
7659;SDS011;3872;47.902;8.162;2022-07-25T12:50:27;14.70;;;6.27;;
7659;SDS011;3872;47.902;8.162;2022-07-25T12:52:53;11.23;;;6.90;;
7659;SDS011;3872;47.902;8.162;2022-07-25T12:55:21;12.30;;;6.90;;
7659;SDS011;3872;47.902;8.162;2022-07-25T12:57:48;10.63;;;6.73;;
7659;SDS011;3872;47.902;8.162;2022-07-25T13:00:16;10.30;;;6.10;;
7659;SDS011;3872;47.902;8.162;2022-07-25T13:02:44;13.33;;;6.70;;
7659;SDS011;3872;47.902;8.162;2022-07-25T13:05:11;9.50;;;6.20;;
7659;SDS011;3872;47.902;8.162;2022-07-25T13:07:38;10.30;;;5.77;;
7659;SDS011;3872;47.902;8.162;2022-07-25T13:10:05;13.83;;;6.57;;
7659;SDS011;3872;47.902;8.162;2022-07-25T13:12:33;13.03;;;6.40;;
7659;SDS011;3872;47.902;8.162;2022-07-25T13:15:00;9.73;;;6.23;;
7659;SDS011;3872;47.902;8.162;2022-07-25T13:17:27;9.37;;;5.60;;
7659;SDS011;3872;47.902;8.162;2022-07-25T13:19:55;9.70;;;5.93;;
7659;SDS011;3872;47.902;8.162;2022-07-25T13:22:22;9.73;;;5.80;;
7659;SDS011;3872;47.902;8.162;2022-07-25T13:24:48;12.10;;;6.40;;
7659;SDS011;3872;47.902;8.162;2022-07-25T13:27:16;8.90;;;5.73;;
7659;SDS011;3872;47.902;8.162;2022-07-25T13:29:44;8.17;;;5.43;;
7659;SDS011;3872;47.902;8.162;2022-07-25T13:32:11;11.70;;;5.33;;
7659;SDS011;3872;47.902;8.162;2022-07-25T13:34:37;12.30;;;5.97;;
7659;SDS011;3872;47.902;8.162;2022-07-25T13:37:04;12.67;;;6.10;;
7659;SDS011;3872;47.902;8.162;2022-07-25T13:39:31;11.93;;;6.50;;
7659;SDS011;3872;47.902;8.162;2022-07-25T13:41:59;9.80;;;5.90;;
7659;SDS011;3872;47.902;8.162;2022-07-25T13:44:26;10.20;;;5.87;;
7659;SDS011;3872;47.902;8.162;2022-07-25T13:46:54;9.20;;;6.07;;
7659;SDS011;3872;47.902;8.162;2022-07-25T13:49:22;9.30;;;6.10;;
7659;SDS011;3872;47.902;8.162;2022-07-25T13:51:49;10.93;;;6.27;;
7659;SDS011;3872;47.902;8.162;2022-07-25T13:54:16;9.53;;;6.37;;
7659;SDS011;3872;47.902;8.162;2022-07-25T13:56:42;15.10;;;6.10;;
7659;SDS011;3872;47.902;8.162;2022-07-25T13:59:09;8.10;;;5.40;;
7659;SDS011;3872;47.902;8.162;2022-07-25T14:01:35;10.97;;;5.90;;
7659;SDS011;3872;47.902;8.162;2022-07-25T14:04:03;10.93;;;5.90;;
7659;SDS011;3872;47.902;8.162;2022-07-25T14:06:30;9.50;;;6.50;;
7659;SDS011;3872;47.902;8.162;2022-07-25T14:08:56;10.60;;;6.30;;
7659;SDS011;3872;47.902;8.162;2022-07-25T14:11:23;11.03;;;6.63;;
7659;SDS011;3872;47.902;8.162;2022-07-25T14:13:49;10.20;;;5.67;;
7659;SDS011;3872;47.902;8.162;2022-07-25T14:16:16;12.20;;;6.10;;
7659;SDS011;3872;47.902;8.162;2022-07-25T14:18:44;8.40;;;5.17;;
7659;SDS011;3872;47.902;8.162;2022-07-25T14:21:12;9.70;;;5.70;;
7659;SDS011;3872;47.902;8.162;2022-07-25T14:23:38;10.43;;;5.70;;
7659;SDS011;3872;47.902;8.162;2022-07-25T14:26:05;11.30;;;5.87;;
7659;SDS011;3872;47.902;8.162;2022-07-25T14:28:31;10.30;;;5.50;;
7659;SDS011;3872;47.902;8.162;2022-07-25T14:30:58;9.87;;;5.50;;
7659;SDS011;3872;47.902;8.162;2022-07-25T14:33:25;10.53;;;5.20;;
7659;SDS011;3872;47.902;8.162;2022-07-25T14:35:51;11.30;;;4.87;;
7659;SDS011;3872;47.902;8.162;2022-07-25T14:38:19;14.20;;;5.40;;
7659;SDS011;3872;47.902;8.162;2022-07-25T14:40:45;16.40;;;6.60;;
7659;SDS011;3872;47.902;8.162;2022-07-25T14:43:14;7.93;;;4.90;;
7659;SDS011;3872;47.902;8.162;2022-07-25T14:45:40;9.53;;;5.70;;
7659;SDS011;3872;47.902;8.162;2022-07-25T14:48:07;15.90;;;5.83;;
7659;SDS011;3872;47.902;8.162;2022-07-25T14:50:34;9.40;;;5.23;;
7659;SDS011;3872;47.902;8.162;2022-07-25T14:53:01;17.47;;;4.93;;
7659;SDS011;3872;47.902;8.162;2022-07-25T14:55:29;9.23;;;4.63;;
7659;SDS011;3872;47.902;8.162;2022-07-25T14:57:55;10.53;;;5.10;;
7659;SDS011;3872;47.902;8.162;2022-07-25T15:00:26;7.63;;;5.10;;
7659;SDS011;3872;47.902;8.162;2022-07-25T15:02:53;8.80;;;5.27;;
7659;SDS011;3872;47.902;8.162;2022-07-25T15:05:19;11.30;;;5.77;;